weather.gov     
National Weather Service

Terminal Aerodrome Forecast
NWS Homepage
This page is being discontinued on March 12, 2014.
The same data is available at this site. Please update your bookmarks.
Thank you, and we apologize for the inconvenience.
Please send an email to SR-SRH.Webmaster@noaa.gov with any concerns.


Current Version
Previous Version:    01  02  03  04  05  06  07  08  09  10  11  12  13  14  15  16  17  18  19  20  21  22  23  24  25  26  27  28  29  30  
   31  32  33  34  35  36  37  38  39  40  41  42  43  
[Printable]
929
FTUS43 KDMX 241140
TAFMCW
TAF
KMCW 241140Z 2412/2512 15005KT 3SM BR BKN150
     FM241500 17008KT 5SM BR SCT040 BKN150
     FM241700 17009KT 5SM BR BKN080
     FM242100 22009KT P6SM SCT030
     FM250200 28009KT P6SM SCT180
     FM250600 31007KT P6SM SCT200
      AMD NOT SKED=


929
FTUS43 KDMX 241140
TAFMCW
TAF
KMCW 241140Z 2412/2512 15005KT 3SM BR BKN150
     FM241500 17008KT 5SM BR SCT040 BKN150
     FM241700 17009KT 5SM BR BKN080
     FM242100 22009KT P6SM SCT030
     FM250200 28009KT P6SM SCT180
     FM250600 31007KT P6SM SCT200
      AMD NOT SKED=




U.S. Dept. of Commerce
NOAA National Weather Service
1325 East West Highway
Silver Spring, MD 20910
E-mail: w-nws.webmaster@noaa.gov
Page last modified: May 16, 2007
NATIONAL WEATHER SERVICE: for Safety, for Work, for Fun - FOR LIFE